createdAt,value
2022-10-25T00:00:13.001Z,121.10
2022-10-25T00:02:48.659Z,115.53
2022-10-25T00:05:23.296Z,115.23
2022-10-25T00:07:57.561Z,110.10
2022-10-25T00:10:31.652Z,119.73
2022-10-25T00:13:05.985Z,116.60
2022-10-25T00:15:39.680Z,106.90
2022-10-25T00:18:16.704Z,110.90
2022-10-25T00:20:50.335Z,117.57
2022-10-25T00:23:23.727Z,126.87
2022-10-25T00:26:06.529Z,124.20
2022-10-25T00:28:40.993Z,107.53
2022-10-25T00:31:16.152Z,113.57
2022-10-25T00:33:52.100Z,115.40
2022-10-25T00:36:27.443Z,113.13
2022-10-25T00:39:02.709Z,106.73
2022-10-25T00:41:38.322Z,103.97
2022-10-25T00:44:47.416Z,102.77
2022-10-25T00:47:31.369Z,97.80
2022-10-25T00:50:15.157Z,103.17
2022-10-25T00:52:51.812Z,101.57
2022-10-25T00:55:28.667Z,101.93
2022-10-25T00:58:05.831Z,103.20
2022-10-25T01:00:40.275Z,105.03
2022-10-25T01:03:14.642Z,97.90
2022-10-25T01:05:50.922Z,101.23
2022-10-25T01:08:26.013Z,111.37
2022-10-25T01:11:00.323Z,105.47
2022-10-25T01:13:33.738Z,111.37
2022-10-25T01:16:19.652Z,113.97
2022-10-25T01:18:58.906Z,108.53
2022-10-25T01:21:50.208Z,106.90
2022-10-25T01:24:58.419Z,98.30
2022-10-25T01:28:02.555Z,103.70
2022-10-25T01:30:55.910Z,109.40
2022-10-25T01:33:36.472Z,101.63
2022-10-25T01:36:18.935Z,109.70
2022-10-25T01:38:58.525Z,111.93
2022-10-25T01:41:38.130Z,111.50
2022-10-25T01:44:22.835Z,113.70
2022-10-25T01:47:03.360Z,102.23
2022-10-25T01:49:46.033Z,94.83
2022-10-25T01:52:22.436Z,98.80
2022-10-25T01:55:00.276Z,93.20
2022-10-25T01:57:49.753Z,97.33
2022-10-25T02:00:25.468Z,81.40
2022-10-25T02:03:15.619Z,85.83
2022-10-25T02:06:01.642Z,101.57
2022-10-25T02:08:44.578Z,91.00
2022-10-25T02:11:27.663Z,90.70
2022-10-25T02:14:15.763Z,95.00
2022-10-25T02:16:54.339Z,75.20
2022-10-25T02:19:36.367Z,85.63
2022-10-25T02:22:14.245Z,85.07
2022-10-25T02:24:51.271Z,84.20
2022-10-25T02:27:28.454Z,90.03
2022-10-25T02:30:03.946Z,77.87
2022-10-25T02:32:38.827Z,75.27
2022-10-25T02:35:19.284Z,79.90
2022-10-25T02:37:53.724Z,75.43
2022-10-25T02:40:29.889Z,81.80
2022-10-25T02:43:04.147Z,88.13
2022-10-25T02:45:38.950Z,74.83
2022-10-25T02:48:13.808Z,77.70
2022-10-25T02:50:50.281Z,74.53
2022-10-25T02:53:25.381Z,78.63
2022-10-25T02:56:06.975Z,99.87
2022-10-25T02:58:42.829Z,126.80
2022-10-25T03:01:17.730Z,159.43
2022-10-25T03:03:51.752Z,177.00
2022-10-25T03:06:28.701Z,175.80
2022-10-25T03:09:02.694Z,156.80
2022-10-25T03:11:37.734Z,154.00
2022-10-25T03:14:12.225Z,138.90
2022-10-25T03:19:25.568Z,130.87
2022-10-25T03:22:00.861Z,124.43
2022-10-25T03:24:35.533Z,106.93
2022-10-25T03:27:09.698Z,122.40
2022-10-25T03:29:44.055Z,115.23
2022-10-25T03:32:18.634Z,114.33
2022-10-25T03:34:52.468Z,96.90
2022-10-25T03:37:28.746Z,102.13
2022-10-25T03:40:03.504Z,94.13
2022-10-25T03:42:37.517Z,91.27
2022-10-25T03:45:12.721Z,92.60
2022-10-25T03:47:46.963Z,89.97
2022-10-25T03:50:21.844Z,97.30
2022-10-25T03:53:02.259Z,92.40
2022-10-25T03:55:38.782Z,101.53
2022-10-25T03:58:13.200Z,100.90
2022-10-25T04:00:47.322Z,98.03
2022-10-25T04:03:21.883Z,102.27
2022-10-25T04:05:56.669Z,92.07
2022-10-25T04:08:32.813Z,85.07
2022-10-25T04:11:07.356Z,95.97
2022-10-25T04:13:43.693Z,93.60
2022-10-25T04:16:19.215Z,94.47
2022-10-25T04:18:55.752Z,88.30
2022-10-25T04:21:30.471Z,104.80
2022-10-25T04:24:08.279Z,93.07
2022-10-25T04:26:43.019Z,96.17
2022-10-25T04:29:19.585Z,93.93
2022-10-25T04:31:53.295Z,93.00
2022-10-25T04:34:28.267Z,101.13
2022-10-25T04:37:02.366Z,93.17
2022-10-25T04:39:41.933Z,98.73
2022-10-25T04:42:16.229Z,105.53
2022-10-25T04:44:50.836Z,103.77
2022-10-25T04:47:29.459Z,101.63
2022-10-25T04:50:08.128Z,104.67
2022-10-25T04:52:44.630Z,102.40
2022-10-25T04:55:23.715Z,106.00
2022-10-25T04:57:58.540Z,109.77
2022-10-25T05:00:32.281Z,105.57
2022-10-25T05:03:10.826Z,106.67
2022-10-25T05:05:50.376Z,107.13
2022-10-25T05:08:28.508Z,104.40
2022-10-25T05:11:04.747Z,109.70
2022-10-25T05:13:45.032Z,103.30
2022-10-25T05:16:23.948Z,93.60
2022-10-25T05:21:56.089Z,105.33
2022-10-25T05:24:51.696Z,114.37
2022-10-25T05:31:27.471Z,116.20
2022-10-25T05:34:05.264Z,111.70
2022-10-25T05:36:39.977Z,102.10
2022-10-25T05:39:14.739Z,109.87
2022-10-25T05:42:07.814Z,105.17
2022-10-25T05:44:45.319Z,108.10
2022-10-25T05:47:28.814Z,99.43
2022-10-25T05:50:07.761Z,98.47
2022-10-25T05:52:48.033Z,94.73
2022-10-25T05:55:26.580Z,98.90
2022-10-25T05:58:01.411Z,98.80
2022-10-25T06:03:22.191Z,108.60
2022-10-25T06:06:00.221Z,106.43
2022-10-25T06:08:35.789Z,112.10
2022-10-25T06:11:11.778Z,108.13
2022-10-25T06:13:46.946Z,111.33
2022-10-25T06:16:22.998Z,102.90
2022-10-25T06:18:58.709Z,99.07
2022-10-25T06:21:33.819Z,95.93
2022-10-25T06:24:09.942Z,100.33
2022-10-25T06:26:45.455Z,109.20
2022-10-25T06:29:20.839Z,102.67
2022-10-25T06:31:55.653Z,104.73
2022-10-25T06:34:32.842Z,99.33
2022-10-25T06:37:08.631Z,93.37
2022-10-25T06:40:35.829Z,88.70
2022-10-25T06:43:11.603Z,91.67
2022-10-25T06:45:46.963Z,85.23
2022-10-25T06:48:23.164Z,82.37
2022-10-25T06:51:11.139Z,90.23
2022-10-25T06:53:46.004Z,106.10
2022-10-25T06:56:20.692Z,94.13
2022-10-25T06:58:54.973Z,89.73
2022-10-25T07:01:31.149Z,85.93
2022-10-25T07:04:07.503Z,89.47
2022-10-25T07:06:50.016Z,89.37
2022-10-25T07:09:32.285Z,94.87
2022-10-25T07:12:12.382Z,99.83
2022-10-25T07:14:47.114Z,88.43
2022-10-25T07:17:21.874Z,89.37
2022-10-25T07:19:56.747Z,87.87
2022-10-25T07:22:44.298Z,87.90
2022-10-25T07:25:19.117Z,90.70
2022-10-25T07:27:56.166Z,95.80
2022-10-25T07:30:34.996Z,91.77
2022-10-25T07:33:11.143Z,90.20
2022-10-25T07:36:10.391Z,92.33
2022-10-25T07:38:56.162Z,93.83
2022-10-25T07:41:39.138Z,86.17
2022-10-25T07:44:21.357Z,83.77
2022-10-25T07:47:01.100Z,92.13
2022-10-25T07:49:37.834Z,90.60
2022-10-25T07:52:12.682Z,89.87
2022-10-25T07:54:49.409Z,91.83
2022-10-25T07:57:25.778Z,95.00
2022-10-25T08:00:00.478Z,99.10
2022-10-25T08:02:35.821Z,95.93
2022-10-25T08:05:13.878Z,97.87
2022-10-25T08:07:49.472Z,99.07
2022-10-25T08:10:25.822Z,95.20
2022-10-25T08:13:01.340Z,90.33
2022-10-25T08:15:35.290Z,98.80
2022-10-25T08:18:11.209Z,98.37
2022-10-25T08:21:02.694Z,99.50
2022-10-25T08:23:39.412Z,91.73
2022-10-25T08:26:20.352Z,80.50
2022-10-25T08:28:56.359Z,89.27
2022-10-25T08:31:37.507Z,85.07
2022-10-25T08:34:12.884Z,89.27
2022-10-25T08:36:48.306Z,82.17
2022-10-25T08:39:27.070Z,82.13
2022-10-25T08:42:06.125Z,76.70
2022-10-25T08:44:48.498Z,80.70
2022-10-25T08:47:31.718Z,84.70
2022-10-25T08:50:10.000Z,86.17
2022-10-25T08:52:47.637Z,89.47
2022-10-25T08:55:26.990Z,85.63
2022-10-25T08:58:04.639Z,87.63
2022-10-25T09:00:43.881Z,94.77
2022-10-25T09:03:26.037Z,89.53
2022-10-25T09:06:13.648Z,91.13
2022-10-25T09:09:14.306Z,86.43
2022-10-25T09:11:57.993Z,82.73
2022-10-25T09:14:45.842Z,88.97
2022-10-25T09:17:25.015Z,89.23
2022-10-25T09:20:09.716Z,83.57
2022-10-25T09:22:50.445Z,89.40
2022-10-25T09:25:29.843Z,88.77
2022-10-25T09:28:13.432Z,89.43
2022-10-25T09:30:50.294Z,96.23
2022-10-25T09:33:31.623Z,85.93
2022-10-25T09:36:09.010Z,90.83
2022-10-25T09:38:48.666Z,86.97
2022-10-25T09:41:27.670Z,82.77
2022-10-25T09:44:07.547Z,90.77
2022-10-25T09:46:47.365Z,95.50
2022-10-25T09:49:29.873Z,92.00
2022-10-25T09:52:11.414Z,91.93
2022-10-25T09:54:51.884Z,92.70
2022-10-25T09:57:26.678Z,94.27
2022-10-25T10:00:01.107Z,86.60
2022-10-25T10:02:48.078Z,91.83
2022-10-25T10:05:24.809Z,93.77
2022-10-25T10:08:03.111Z,98.03
2022-10-25T10:10:40.093Z,92.33
2022-10-25T10:13:22.999Z,98.70
2022-10-25T10:16:04.384Z,98.53
2022-10-25T10:18:41.528Z,92.60
2022-10-25T10:21:21.774Z,103.03
2022-10-25T10:24:01.481Z,89.10
2022-10-25T10:26:37.891Z,98.90
2022-10-25T10:29:18.065Z,91.97
2022-10-25T10:32:02.782Z,95.70
2022-10-25T10:34:44.770Z,95.60
2022-10-25T10:37:25.007Z,89.93
2022-10-25T10:40:01.167Z,88.37
2022-10-25T10:42:42.873Z,78.27
2022-10-25T10:45:22.446Z,74.03
2022-10-25T10:48:02.116Z,72.43
2022-10-25T10:50:42.543Z,78.87
2022-10-25T10:53:27.900Z,74.70
2022-10-25T10:56:03.427Z,73.27
2022-10-25T10:58:40.221Z,75.07
2022-10-25T11:01:17.106Z,80.97
2022-10-25T11:04:01.047Z,74.27
2022-10-25T11:06:42.040Z,77.13
2022-10-25T11:09:27.095Z,77.90
2022-10-25T11:12:11.675Z,85.47
2022-10-25T11:14:45.903Z,80.90
2022-10-25T11:17:24.985Z,88.50
2022-10-25T11:20:26.258Z,87.93
2022-10-25T11:23:10.591Z,88.13
2022-10-25T11:25:51.512Z,91.50
2022-10-25T11:28:41.006Z,89.33
2022-10-25T11:31:25.771Z,85.37
2022-10-25T11:34:15.240Z,84.50
2022-10-25T11:37:10.176Z,94.37
2022-10-25T11:40:07.084Z,93.90
2022-10-25T11:43:08.627Z,94.97
2022-10-25T11:45:48.146Z,94.20
2022-10-25T11:48:38.925Z,91.07
2022-10-25T11:51:20.968Z,91.13
2022-10-25T11:54:10.901Z,92.10
2022-10-25T11:56:53.839Z,98.70
2022-10-25T11:59:37.141Z,102.57
2022-10-25T12:02:24.272Z,97.63
2022-10-25T12:05:07.605Z,102.93
2022-10-25T12:07:51.302Z,95.27
2022-10-25T12:10:40.085Z,98.80
2022-10-25T12:13:23.575Z,101.97
2022-10-25T12:16:00.287Z,108.03
2022-10-25T12:18:40.314Z,101.13
2022-10-25T12:21:21.344Z,105.17
2022-10-25T12:23:57.334Z,103.60
2022-10-25T12:26:36.247Z,114.30
2022-10-25T12:29:19.550Z,121.73
2022-10-25T12:32:05.767Z,109.63
2022-10-25T12:34:44.965Z,112.53
2022-10-25T12:37:29.892Z,105.87
2022-10-25T12:40:06.981Z,111.90
2022-10-25T12:42:47.240Z,111.90
2022-10-25T12:45:59.777Z,109.10
2022-10-25T12:49:10.381Z,112.67
2022-10-25T12:52:12.576Z,118.53
2022-10-25T12:55:19.485Z,115.27
2022-10-25T12:58:05.902Z,114.67
2022-10-25T13:00:54.220Z,113.70
2022-10-25T13:04:06.776Z,119.10
2022-10-25T13:06:44.009Z,131.70
2022-10-25T13:09:26.980Z,137.30
2022-10-25T13:12:07.169Z,135.23
2022-10-25T13:14:43.095Z,126.90
2022-10-25T13:17:55.579Z,133.20
2022-10-25T13:20:53.995Z,131.80
2022-10-25T13:24:13.014Z,141.63
2022-10-25T13:27:25.979Z,142.13
2022-10-25T13:30:32.826Z,144.57
2022-10-25T13:33:36.568Z,141.67
2022-10-25T13:36:16.830Z,145.80
2022-10-25T13:38:50.581Z,144.87
2022-10-25T13:41:29.343Z,154.67
2022-10-25T13:44:09.860Z,153.67
2022-10-25T13:46:47.023Z,150.17
2022-10-25T13:49:47.969Z,154.83
2022-10-25T13:52:33.479Z,148.43
2022-10-25T13:55:14.429Z,148.30
2022-10-25T13:58:00.580Z,150.03
2022-10-25T14:00:47.940Z,146.77
2022-10-25T14:03:38.449Z,114.70
2022-10-25T14:06:29.178Z,126.57
2022-10-25T14:09:28.197Z,123.13
2022-10-25T14:12:24.149Z,119.00
2022-10-25T14:15:14.088Z,122.97
2022-10-25T14:17:53.761Z,115.13
2022-10-25T14:20:33.968Z,117.67
2022-10-25T14:23:10.753Z,122.90
2022-10-25T14:25:53.364Z,113.50
2022-10-25T14:28:40.523Z,120.97
2022-10-25T14:31:23.592Z,116.63
2022-10-25T14:33:59.520Z,122.47
2022-10-25T14:36:38.434Z,112.70
2022-10-25T14:39:26.452Z,114.60
2022-10-25T14:42:26.145Z,114.03
2022-10-25T14:45:10.619Z,121.27
2022-10-25T14:47:48.035Z,126.23
2022-10-25T14:50:29.588Z,119.80
2022-10-25T14:53:08.228Z,124.33
2022-10-25T14:55:53.911Z,126.83
2022-10-25T14:58:32.617Z,129.40
2022-10-25T15:01:09.677Z,132.30
2022-10-25T15:03:48.080Z,144.07
2022-10-25T15:06:25.347Z,137.53
2022-10-25T15:09:37.115Z,135.47
2022-10-25T15:12:23.952Z,142.40
2022-10-25T15:15:02.221Z,141.13
2022-10-25T15:17:39.322Z,145.87
2022-10-25T15:20:38.304Z,156.80
2022-10-25T15:23:29.765Z,142.40
2022-10-25T15:26:19.621Z,151.93
2022-10-25T15:28:59.125Z,155.60
2022-10-25T15:31:36.847Z,144.13
2022-10-25T15:34:16.544Z,160.10
2022-10-25T15:36:51.875Z,141.20
2022-10-25T15:39:33.932Z,150.03
2022-10-25T15:42:10.466Z,148.10
2022-10-25T15:44:50.687Z,136.70
2022-10-25T15:47:51.745Z,145.40
2022-10-25T15:50:29.239Z,135.93
2022-10-25T15:53:08.668Z,136.77
2022-10-25T15:56:02.461Z,133.57
2022-10-25T15:58:40.304Z,128.13
2022-10-25T16:01:14.242Z,143.30
2022-10-25T16:03:51.878Z,141.17
2022-10-25T16:06:27.281Z,131.13
2022-10-25T16:09:06.372Z,143.03
2022-10-25T16:11:46.956Z,139.97
2022-10-25T16:14:28.842Z,142.47
2022-10-25T16:17:05.143Z,148.27
2022-10-25T16:19:41.540Z,154.60
2022-10-25T16:22:17.372Z,151.00
2022-10-25T16:24:51.094Z,157.10
2022-10-25T16:27:28.133Z,148.07
2022-10-25T16:30:08.188Z,157.73
2022-10-25T16:32:42.916Z,155.83
2022-10-25T16:35:20.911Z,156.43
2022-10-25T16:38:00.918Z,148.43
2022-10-25T16:40:37.950Z,151.03
2022-10-25T16:43:14.118Z,162.07
2022-10-25T16:45:50.244Z,154.13
2022-10-25T16:48:26.752Z,154.13
2022-10-25T16:51:04.673Z,154.80
2022-10-25T16:53:39.176Z,163.03
2022-10-25T16:56:14.084Z,167.40
2022-10-25T16:58:48.473Z,167.93
2022-10-25T17:01:34.392Z,165.47
2022-10-25T17:04:10.342Z,167.57
2022-10-25T17:06:47.686Z,157.80
2022-10-25T17:09:23.084Z,153.67
2022-10-25T17:11:57.056Z,156.57
2022-10-25T17:14:32.276Z,156.57
2022-10-25T17:17:07.892Z,157.20
2022-10-25T17:19:42.866Z,150.53
2022-10-25T17:22:24.303Z,143.60
2022-10-25T17:24:58.681Z,154.70
2022-10-25T17:27:33.460Z,151.27
2022-10-25T17:30:08.517Z,161.17
2022-10-25T17:32:42.491Z,150.97
2022-10-25T17:35:18.040Z,154.13
2022-10-25T17:37:59.150Z,158.30
2022-10-25T17:40:35.152Z,165.57
2022-10-25T17:43:08.748Z,159.70
2022-10-25T17:45:42.236Z,156.60
2022-10-25T17:48:16.611Z,168.93
2022-10-25T17:50:50.947Z,152.37
2022-10-25T17:53:27.910Z,150.97
2022-10-25T17:56:01.993Z,145.20
2022-10-25T17:58:39.342Z,152.83
2022-10-25T18:01:14.606Z,135.67
2022-10-25T18:03:48.905Z,137.60
2022-10-25T18:06:24.853Z,134.60
2022-10-25T18:09:04.908Z,130.07
2022-10-25T18:11:39.185Z,132.43
2022-10-25T18:14:13.164Z,126.67
2022-10-25T18:16:47.427Z,127.20
2022-10-25T18:19:21.445Z,137.70
2022-10-25T18:21:55.340Z,132.97
2022-10-25T18:24:32.032Z,123.03
2022-10-25T18:27:10.307Z,129.63
2022-10-25T18:29:46.564Z,135.23
2022-10-25T18:32:20.493Z,130.00
2022-10-25T18:34:54.384Z,133.53
2022-10-25T18:37:27.438Z,133.63
2022-10-25T18:40:03.553Z,142.03
2022-10-25T18:42:39.424Z,130.67
2022-10-25T18:45:13.918Z,137.67
2022-10-25T18:47:48.223Z,140.10
2022-10-25T18:50:22.165Z,144.60
2022-10-25T18:52:55.372Z,144.37
2022-10-25T18:55:31.204Z,149.37
2022-10-25T18:58:05.771Z,143.43
2022-10-25T19:00:39.837Z,148.20
2022-10-25T19:03:15.685Z,147.40
2022-10-25T19:05:49.573Z,136.27
2022-10-25T19:08:23.486Z,145.47
2022-10-25T19:10:59.651Z,138.73
2022-10-25T19:13:33.815Z,142.37
2022-10-25T19:16:07.800Z,141.73
2022-10-25T19:18:41.973Z,145.00
2022-10-25T19:21:18.194Z,138.90
2022-10-25T19:23:55.618Z,137.87
2022-10-25T19:26:31.633Z,147.10
2022-10-25T19:29:06.133Z,140.03
2022-10-25T19:31:41.046Z,148.60
2022-10-25T19:34:14.468Z,140.03
2022-10-25T19:36:51.502Z,141.70
2022-10-25T19:39:25.929Z,136.97
2022-10-25T19:42:01.488Z,142.80
2022-10-25T19:44:35.763Z,141.73
2022-10-25T19:47:09.561Z,154.97
2022-10-25T19:49:46.296Z,151.20
2022-10-25T19:52:20.420Z,142.90
2022-10-25T19:54:54.467Z,139.17
2022-10-25T19:57:35.952Z,143.07
2022-10-25T20:00:12.775Z,149.77
2022-10-25T20:02:50.607Z,141.80
2022-10-25T20:05:27.370Z,150.20
2022-10-25T20:08:02.677Z,136.07
2022-10-25T20:10:36.629Z,129.23
2022-10-25T20:13:11.818Z,143.40
2022-10-25T20:15:54.015Z,137.90
2022-10-25T20:18:30.271Z,135.10
2022-10-25T20:21:06.052Z,136.30
2022-10-25T20:23:44.325Z,140.10
2022-10-25T20:26:20.212Z,138.83
2022-10-25T20:28:58.442Z,138.37
2022-10-25T20:31:36.879Z,133.80
2022-10-25T20:34:10.922Z,127.20
2022-10-25T20:36:44.829Z,129.87
2022-10-25T20:39:19.387Z,124.67
2022-10-25T20:41:54.584Z,129.93
2022-10-25T20:44:30.966Z,132.53
2022-10-25T20:47:04.684Z,130.27
2022-10-25T20:49:38.685Z,128.10
2022-10-25T20:52:12.184Z,123.70
2022-10-25T20:54:45.697Z,128.00
2022-10-25T20:57:20.215Z,120.13
2022-10-25T20:59:55.953Z,131.33
2022-10-25T21:02:30.351Z,123.73
2022-10-25T21:05:04.496Z,126.47
2022-10-25T21:07:38.937Z,124.27
2022-10-25T21:10:13.087Z,118.30
2022-10-25T21:12:46.517Z,130.80
2022-10-25T21:15:22.707Z,120.47
2022-10-25T21:17:56.648Z,129.07
2022-10-25T21:20:30.877Z,129.37
2022-10-25T21:23:04.983Z,120.47
2022-10-25T21:25:38.847Z,119.17
2022-10-25T21:28:15.995Z,120.47
2022-10-25T21:30:52.765Z,126.87
2022-10-25T21:33:26.619Z,121.67
2022-10-25T21:36:08.345Z,125.63
2022-10-25T21:38:42.350Z,125.93
2022-10-25T21:41:18.253Z,129.60
2022-10-25T21:43:53.623Z,126.70
2022-10-25T21:46:32.854Z,125.73
2022-10-25T21:49:09.574Z,130.80
2022-10-25T21:51:42.927Z,129.70
2022-10-25T21:54:17.457Z,127.23
2022-10-25T21:56:53.709Z,122.87
2022-10-25T21:59:28.216Z,127.20
2022-10-25T22:02:04.677Z,123.60
2022-10-25T22:04:38.730Z,126.17
2022-10-25T22:07:12.858Z,124.27
2022-10-25T22:09:46.385Z,123.83
2022-10-25T22:12:20.696Z,126.73
2022-10-25T22:14:55.749Z,133.13
2022-10-25T22:17:32.174Z,127.27
2022-10-25T22:20:05.650Z,125.43
2022-10-25T22:22:39.860Z,131.53
2022-10-25T22:25:48.175Z,132.83
2022-10-25T22:28:22.389Z,127.63
2022-10-25T22:31:03.333Z,126.30
2022-10-25T22:33:40.335Z,137.13
2022-10-25T22:36:17.146Z,140.90
2022-10-25T22:38:50.887Z,130.43
2022-10-25T22:41:27.028Z,128.53
2022-10-25T22:44:02.044Z,135.97
2022-10-25T22:46:38.214Z,136.30
2022-10-25T22:49:14.433Z,135.87
2022-10-25T22:51:48.519Z,136.03
2022-10-25T22:54:22.355Z,132.00
2022-10-25T22:56:56.296Z,138.43
2022-10-25T22:59:30.180Z,134.40
2022-10-25T23:02:04.164Z,142.13
2022-10-25T23:04:40.090Z,140.57
2022-10-25T23:07:13.981Z,140.67
2022-10-25T23:09:47.721Z,139.23
2022-10-25T23:12:21.837Z,147.03
2022-10-25T23:14:57.274Z,141.77
2022-10-25T23:17:31.727Z,148.77
2022-10-25T23:20:07.586Z,147.17
2022-10-25T23:22:41.980Z,143.23
2022-10-25T23:25:16.118Z,145.30
2022-10-25T23:27:50.455Z,139.47
2022-10-25T23:30:24.839Z,140.53
2022-10-25T23:32:58.696Z,143.97
2022-10-25T23:35:36.090Z,132.63
2022-10-25T23:38:10.468Z,139.83
2022-10-25T23:40:50.891Z,138.37
2022-10-25T23:43:25.332Z,130.90
2022-10-25T23:45:59.722Z,130.60
2022-10-25T23:48:33.997Z,123.73
2022-10-25T23:51:11.252Z,128.07
2022-10-25T23:53:45.829Z,131.10
2022-10-25T23:56:20.827Z,135.53
2022-10-25T23:58:54.880Z,130.97
